Kapaa, HI (96746)

6:47 AM HST on December 08, 2016 (GMT -1000)
Kalihiwai Ridge - Top of Halaulani Road | | Change Station
Active Advisory: Flash Flood Watch

Elev 561 ft 22.17 °N, 159.44 °W | Updated 25 seconds ago

Mostly Cloudy
Mostly Cloudy
69.1 °F
Feels Like 69.1 °F
N
0.0
Wind Variable Wind from WSW
Gusts 0.0 mph

Today
High -- | Low -- °F
--% Chance of Precip.
Yesterday
High -- | Low -- °F
Precip. -- in
Pressure 29.90 in
Visibility 10.0 miles
Clouds Mostly Cloudy 6000 ft
Dew Point 67 °F
Humidity 92%
Rainfall 0.00 in
Snow Depth Not available.
7:05 AM 5:54 PM
Waxing Gibbous, 65% visible
METAR PHLI 081553Z 30004KT 10SM BKN060 22/19 A2990 RMK AO2 SLP124 T02170194
Pressure 29.90 in
Visibility 10.0 miles
Clouds Mostly Cloudy 6000 ft
Dew Point 67 °F
Humidity 92%
Rainfall 0.00 in
Snow Depth Not available.
7:05 AM 5:54 PM
Waxing Gibbous, 65% visible
METAR PHLI 081553Z 30004KT 10SM BKN060 22/19 A2990 RMK AO2 SLP124 T02170194

10-Day Weather Forecast

Almanac

Astronomy

Dec. 08, 2016 Rise Set
Actual Time
Civil Twilight
Nautical Twilight
Astronomical Twilight
Moon
Length of Visible Light
Length of Day
Tomorrow will be .
, % of the Moon is Illuminated

Today's Extremes

State Highs State Lows

Community

WunderPhotos

Upload Photos

1,956,274 photos uploaded!

WunderBlog® & News

Nearby

Air Quality

  Air Quality AQ Index Pollutant
Not available.

Snow Depth

Station Depth Elevation

Earthquake Activity

City Distance Mag. Time & Date
Minimum magnitude displayed is 2.5.

Coastal Water Temperatures

Place Temperature

Stations

Nearby Weather Stations

Station Location Temp. Windchill Dew Point Humidity Wind Precip. Elev Updated Type
                   

Watches & Warnings

Flash Flood Watch
Issued: 3:09 AM HST Dec. 8, 2016 – National Weather Service

... Flash Flood Watch in effect through late this afternoon...

The National Weather Service in Honolulu has issued a

* Flash Flood Watch for Kahoolawe... Kauai... Lanai... Maui...
Molokai... Niihau and Oahu.

* Through late this afternoon

* the combination of an unstable and moist atmosphere will result
in the potential for heavy showers and thunderstorms over the
smaller islands through late this afternoon.

* Heavy downpours could cause streams to quickly overflow there
banks... leading to life threatening flash flooding.

Precautionary/preparedness actions...

A Flash Flood Watch means that conditions may develop that lead
to flash flooding. Flash flooding is very dangerous.

You should monitor later forecasts and be prepared to take action
should flash flood warnings be issued.